Time;durP1;ratioP1;P1;durP2;ratioP2;P2;SDS_P1;SDS_P2;PMS_P1;PMS_P2;Temp;Humidity;BMP_temperature;BMP_pressure;BME280_temperature;BME280_humidity;BME280_pressure;Samples;Min_cycle;Max_cycle;Signal;HPM_P1;HPM_P2
2022/03/11 00:01:30;;;;;;;14.10;7.00;;;;;;;;;;5094806;28;20170;-41
2022/03/11 00:03:56;;;;;;;13.02;8.18;;;;;;;;;;5095073;28;20035;-39
2022/03/11 00:06:21;;;;;;;12.38;6.43;;;;;;;;;;5095767;28;20119;-39
2022/03/11 00:08:47;;;;;;;13.82;8.35;;;;;;;;;;5095312;28;20028;-39
2022/03/11 00:11:12;;;;;;;7.70;5.10;;;;;;;;;;5095462;28;20052;-41
2022/03/11 00:13:38;;;;;;;12.30;6.28;;;;;;;;;;5094163;28;20023;-39
2022/03/11 00:16:04;;;;;;;11.95;6.18;;;;;;;;;;5095304;28;20077;-39
2022/03/11 00:18:29;;;;;;;11.55;6.53;;;;;;;;;;5095146;28;20070;-39
2022/03/11 00:20:55;;;;;;;14.48;7.40;;;;;;;;;;5095198;28;20032;-39
2022/03/11 00:23:20;;;;;;;8.05;4.82;;;;;;;;;;5095155;28;20048;-39
2022/03/11 00:25:46;;;;;;;13.35;7.45;;;;;;;;;;5094902;28;20043;-39
2022/03/11 00:28:13;;;;;;;8.77;4.75;;;;;;;;;;5095273;28;20028;-40
2022/03/11 00:30:38;;;;;;;15.05;8.00;;;;;;;;;;5094928;28;20488;-39
2022/03/11 00:33:04;;;;;;;11.65;5.90;;;;;;;;;;5095123;28;20114;-39
2022/03/11 00:35:29;;;;;;;12.27;6.95;;;;;;;;;;5095302;28;20024;-40
2022/03/11 00:37:55;;;;;;;13.43;7.10;;;;;;;;;;5095243;28;20042;-41
2022/03/11 00:40:20;;;;;;;15.18;8.30;;;;;;;;;;5094620;28;20433;-39
2022/03/11 00:42:46;;;;;;;12.02;7.40;;;;;;;;;;5095193;28;20431;-38
2022/03/11 00:45:11;;;;;;;13.57;6.35;;;;;;;;;;5094896;28;20040;-39
2022/03/11 00:47:37;;;;;;;10.63;6.78;;;;;;;;;;5094461;28;20028;-41
2022/03/11 00:50:03;;;;;;;8.20;3.72;;;;;;;;;;5093421;28;20016;-41
2022/03/11 00:52:28;;;;;;;7.82;5.07;;;;;;;;;;5093389;28;20495;-39
2022/03/11 00:54:54;;;;;;;11.73;6.05;;;;;;;;;;5094475;28;20490;-39
2022/03/11 00:57:19;;;;;;;11.38;5.45;;;;;;;;;;5094185;28;20028;-38
2022/03/11 00:59:45;;;;;;;15.27;6.45;;;;;;;;;;5094558;28;20107;-39
2022/03/11 01:02:11;;;;;;;17.60;7.50;;;;;;;;;;5094357;28;20024;-40
2022/03/11 01:04:36;;;;;;;14.77;7.55;;;;;;;;;;5094302;28;20369;-39
2022/03/11 01:07:02;;;;;;;11.10;6.68;;;;;;;;;;5094358;28;20032;-39
2022/03/11 01:09:27;;;;;;;10.18;5.93;;;;;;;;;;5094313;28;20028;-39
2022/03/11 01:11:53;;;;;;;7.95;4.88;;;;;;;;;;5094209;28;20020;-40
2022/03/11 01:14:18;;;;;;;6.63;3.63;;;;;;;;;;5094593;28;20096;-40
2022/03/11 01:16:44;;;;;;;6.43;4.20;;;;;;;;;;5092935;28;20430;-38
2022/03/11 01:19:09;;;;;;;5.97;2.63;;;;;;;;;;5094173;28;20565;-39
2022/03/11 01:21:35;;;;;;;4.60;3.55;;;;;;;;;;5094047;28;20028;-40
2022/03/11 01:24:01;;;;;;;10.30;4.28;;;;;;;;;;5093790;28;20024;-39
2022/03/11 01:26:26;;;;;;;5.55;3.13;;;;;;;;;;5093996;28;20068;-39
2022/03/11 01:28:52;;;;;;;10.32;4.65;;;;;;;;;;5093802;28;20385;-40
2022/03/11 01:31:18;;;;;;;10.05;4.80;;;;;;;;;;5092557;28;20024;-39
2022/03/11 01:33:45;;;;;;;9.50;4.40;;;;;;;;;;5093884;28;20438;-39
2022/03/11 01:36:12;;;;;;;6.82;4.38;;;;;;;;;;5093812;28;20028;-40
2022/03/11 01:38:38;;;;;;;8.23;3.85;;;;;;;;;;5093789;28;20028;-40
2022/03/11 01:41:04;;;;;;;7.75;4.18;;;;;;;;;;5093704;28;20152;-41
2022/03/11 01:43:30;;;;;;;7.45;4.80;;;;;;;;;;5093725;28;20041;-39
2022/03/11 01:45:59;;;;;;;5.50;3.75;;;;;;;;;;5093593;28;20028;-39
2022/03/11 01:48:25;;;;;;;9.93;4.22;;;;;;;;;;5093624;28;20361;-39
2022/03/11 01:50:51;;;;;;;6.78;4.05;;;;;;;;;;5093581;28;20035;-40
2022/03/11 01:53:17;;;;;;;10.35;5.00;;;;;;;;;;5093112;28;20072;-39
2022/03/11 01:55:43;;;;;;;9.50;4.32;;;;;;;;;;5093699;28;20033;-39
2022/03/11 01:58:10;;;;;;;8.25;4.05;;;;;;;;;;5093760;28;20028;-39
2022/03/11 02:00:38;;;;;;;10.93;4.55;;;;;;;;;;5093673;28;20058;-39
2022/03/11 02:03:05;;;;;;;6.13;4.18;;;;;;;;;;5093368;28;20035;-39
2022/03/11 02:05:30;;;;;;;7.15;4.55;;;;;;;;;;5093295;28;20039;-39
2022/03/11 02:07:58;;;;;;;3.97;2.60;;;;;;;;;;5093255;28;20032;-39
2022/03/11 02:10:25;;;;;;;9.65;4.35;;;;;;;;;;5093220;28;20028;-39
2022/03/11 02:12:51;;;;;;;4.28;2.97;;;;;;;;;;5093199;28;20020;-39
2022/03/11 02:15:16;;;;;;;7.95;3.70;;;;;;;;;;5093139;28;20035;-40
2022/03/11 02:17:42;;;;;;;5.03;3.03;;;;;;;;;;5093336;28;20028;-39
2022/03/11 02:20:08;;;;;;;5.88;3.50;;;;;;;;;;5093015;28;20114;-40
2022/03/11 02:22:37;;;;;;;6.95;3.50;;;;;;;;;;5093017;28;20016;-41
2022/03/11 02:25:07;;;;;;;7.43;4.03;;;;;;;;;;5092821;28;20132;-39
2022/03/11 02:27:38;;;;;;;7.70;4.30;;;;;;;;;;5092890;28;20054;-42
2022/03/11 02:30:16;;;;;;;2.38;1.92;;;;;;;;;;5092918;28;20559;-39
2022/03/11 02:32:42;;;;;;;5.68;3.63;;;;;;;;;;5092906;28;20444;-41
2022/03/11 02:35:08;;;;;;;8.25;3.95;;;;;;;;;;5092858;28;20103;-40
2022/03/11 02:37:34;;;;;;;4.40;3.45;;;;;;;;;;5093116;28;20022;-40
2022/03/11 02:39:59;;;;;;;6.50;3.95;;;;;;;;;;5092835;28;20094;-40
2022/03/11 02:42:24;;;;;;;4.85;3.17;;;;;;;;;;5092966;28;20095;-40
2022/03/11 02:44:50;;;;;;;8.93;4.22;;;;;;;;;;5092859;28;20464;-40
2022/03/11 02:47:15;;;;;;;8.20;3.80;;;;;;;;;;5092611;28;20381;-41
2022/03/11 02:49:41;;;;;;;6.45;3.95;;;;;;;;;;5092627;28;20028;-40
2022/03/11 02:52:07;;;;;;;9.80;4.68;;;;;;;;;;5092564;28;20020;-40
2022/03/11 02:54:32;;;;;;;6.07;3.97;;;;;;;;;;5092830;28;20043;-41
2022/03/11 02:56:58;;;;;;;11.57;4.47;;;;;;;;;;5092811;28;20044;-42
2022/03/11 02:59:24;;;;;;;5.95;3.95;;;;;;;;;;5092374;28;20408;-39
2022/03/11 03:01:49;;;;;;;7.63;4.45;;;;;;;;;;5091165;28;20032;-43
2022/03/11 03:04:15;;;;;;;4.80;2.45;;;;;;;;;;5092537;28;20024;-40
2022/03/11 03:06:40;;;;;;;11.80;4.68;;;;;;;;;;5092337;28;20024;-41
2022/03/11 03:09:06;;;;;;;5.63;3.88;;;;;;;;;;5092424;28;20027;-41
2022/03/11 03:11:32;;;;;;;7.90;5.32;;;;;;;;;;5092615;28;20032;-43
2022/03/11 03:13:57;;;;;;;8.55;3.78;;;;;;;;;;5092366;28;20077;-41
2022/03/11 03:16:23;;;;;;;5.20;3.65;;;;;;;;;;5092563;28;20027;-42
2022/03/11 03:18:48;;;;;;;8.50;4.50;;;;;;;;;;5092521;28;20050;-42
2022/03/11 03:21:14;;;;;;;9.43;3.80;;;;;;;;;;5092279;28;20383;-39
2022/03/11 03:23:40;;;;;;;9.35;3.80;;;;;;;;;;5091036;28;20051;-40
2022/03/11 03:26:05;;;;;;;9.77;4.55;;;;;;;;;;5091975;28;20044;-40
2022/03/11 03:28:31;;;;;;;4.78;2.97;;;;;;;;;;5092242;28;20117;-40
2022/03/11 03:30:56;;;;;;;8.98;3.95;;;;;;;;;;5092251;28;20028;-39
2022/03/11 03:33:22;;;;;;;25.65;10.13;;;;;;;;;;5092480;28;20052;-42
2022/03/11 03:35:48;;;;;;;86.55;25.33;;;;;;;;;;5092161;28;20415;-40
2022/03/11 03:38:14;;;;;;;104.13;34.97;;;;;;;;;;5092372;28;20035;-39
2022/03/11 03:40:39;;;;;;;67.47;22.67;;;;;;;;;;5092194;28;20051;-40
2022/03/11 03:43:08;;;;;;;54.17;17.52;;;;;;;;;;5092396;28;20028;-41
2022/03/11 03:45:33;;;;;;;84.28;28.65;;;;;;;;;;5091940;28;20502;-39
2022/03/11 03:48:00;;;;;;;104.82;31.58;;;;;;;;;;5092331;28;20036;-40
2022/03/11 03:50:29;;;;;;;80.45;28.55;;;;;;;;;;5091088;28;20430;-39
2022/03/11 03:52:55;;;;;;;76.20;28.48;;;;;;;;;;5092058;28;20024;-42
2022/03/11 03:55:20;;;;;;;42.92;22.25;;;;;;;;;;5092048;28;20365;-39
2022/03/11 03:57:46;;;;;;;57.92;21.52;;;;;;;;;;5092209;28;20012;-39
2022/03/11 04:00:12;;;;;;;17.30;10.23;;;;;;;;;;5090671;28;20060;-41
2022/03/11 04:02:47;;;;;;;15.68;7.65;;;;;;;;;;5091960;28;20020;-40
2022/03/11 04:05:13;;;;;;;4.55;3.17;;;;;;;;;;5091851;28;20036;-39
2022/03/11 04:07:40;;;;;;;6.43;3.10;;;;;;;;;;5091851;28;20078;-41
2022/03/11 04:10:06;;;;;;;5.65;3.67;;;;;;;;;;5092040;28;20024;-42
2022/03/11 04:12:32;;;;;;;6.95;3.92;;;;;;;;;;5091825;28;20039;-41
2022/03/11 04:14:57;;;;;;;6.03;4.00;;;;;;;;;;5092618;28;20024;-40
2022/03/11 04:17:23;;;;;;;7.82;3.33;;;;;;;;;;5095696;28;20363;-41
2022/03/11 04:19:49;;;;;;;7.45;4.40;;;;;;;;;;5095666;28;20391;-40
2022/03/11 04:22:15;;;;;;;5.28;3.33;;;;;;;;;;5095274;28;20028;-39
2022/03/11 04:24:41;;;;;;;5.40;2.95;;;;;;;;;;5095105;28;20044;-39
2022/03/11 04:27:06;;;;;;;9.15;4.63;;;;;;;;;;5095225;28;20093;-40
2022/03/11 04:29:32;;;;;;;7.38;4.07;;;;;;;;;;5095213;28;20111;-42
2022/03/11 04:31:57;;;;;;;6.70;3.58;;;;;;;;;;5095347;28;20047;-40
2022/03/11 04:34:23;;;;;;;6.57;4.13;;;;;;;;;;5093844;28;20035;-41
2022/03/11 04:36:48;;;;;;;7.43;4.80;;;;;;;;;;5095264;28;20028;-39
2022/03/11 04:39:15;;;;;;;9.00;4.05;;;;;;;;;;5095012;28;20028;-39
2022/03/11 04:41:42;;;;;;;10.30;4.78;;;;;;;;;;5094988;28;20024;-40
2022/03/11 04:44:08;;;;;;;12.02;5.25;;;;;;;;;;5095101;28;20065;-41
2022/03/11 04:46:33;;;;;;;10.30;4.93;;;;;;;;;;5094882;28;20028;-40
2022/03/11 04:48:59;;;;;;;9.45;4.38;;;;;;;;;;5094917;28;20028;-40
2022/03/11 04:51:25;;;;;;;6.68;4.00;;;;;;;;;;5095069;28;20051;-40
2022/03/11 04:53:50;;;;;;;3.92;3.22;;;;;;;;;;5094741;28;20388;-40
2022/03/11 04:56:16;;;;;;;8.40;4.70;;;;;;;;;;5094938;28;20066;-39
2022/03/11 04:58:42;;;;;;;9.30;4.90;;;;;;;;;;5094699;28;20039;-39
2022/03/11 05:01:07;;;;;;;5.78;3.83;;;;;;;;;;5094964;28;20032;-40
2022/03/11 05:03:34;;;;;;;5.20;2.35;;;;;;;;;;5094445;28;20024;-40
2022/03/11 05:06:00;;;;;;;7.05;3.83;;;;;;;;;;5094394;28;20028;-40
2022/03/11 05:08:25;;;;;;;5.55;4.03;;;;;;;;;;5094402;28;20016;-39
2022/03/11 05:10:51;;;;;;;4.13;2.40;;;;;;;;;;5094290;28;20020;-39
2022/03/11 05:13:17;;;;;;;2.55;1.75;;;;;;;;;;5094324;28;20116;-43
2022/03/11 05:15:42;;;;;;;4.38;2.95;;;;;;;;;;5094242;28;20024;-43
2022/03/11 05:18:11;;;;;;;6.28;3.55;;;;;;;;;;5094277;28;20122;-39
2022/03/11 05:20:37;;;;;;;4.40;3.00;;;;;;;;;;5094529;28;20410;-44
2022/03/11 05:23:03;;;;;;;6.15;3.25;;;;;;;;;;5094125;28;20016;-42
2022/03/11 05:25:29;;;;;;;3.00;2.65;;;;;;;;;;5092500;28;20082;-42
2022/03/11 05:27:55;;;;;;;4.05;2.90;;;;;;;;;;5092948;28;20020;-40
2022/03/11 05:30:20;;;;;;;3.42;2.55;;;;;;;;;;5094152;28;20016;-40
2022/03/11 05:32:46;;;;;;;9.65;4.20;;;;;;;;;;5093964;28;20459;-40
2022/03/11 05:35:14;;;;;;;7.55;4.35;;;;;;;;;;5093965;28;20024;-41
2022/03/11 05:37:40;;;;;;;3.35;2.22;;;;;;;;;;5093985;28;20035;-39
2022/03/11 05:40:06;;;;;;;2.15;2.00;;;;;;;;;;5094129;28;20024;-39
2022/03/11 05:42:32;;;;;;;4.45;3.42;;;;;;;;;;5093721;28;20511;-39
2022/03/11 05:44:58;;;;;;;5.40;3.58;;;;;;;;;;5093925;28;20031;-39
2022/03/11 05:47:23;;;;;;;12.18;6.85;;;;;;;;;;5092482;28;20041;-41
2022/03/11 05:49:49;;;;;;;10.63;6.15;;;;;;;;;;5093605;28;20063;-39
2022/03/11 05:52:15;;;;;;;10.65;4.90;;;;;;;;;;5093840;28;20020;-39
2022/03/11 05:54:40;;;;;;;9.95;6.07;;;;;;;;;;5093547;28;20059;-39
2022/03/11 05:57:06;;;;;;;17.13;7.47;;;;;;;;;;5093715;28;20024;-39
2022/03/11 05:59:32;;;;;;;9.93;6.03;;;;;;;;;;5093704;28;20106;-39
2022/03/11 06:01:58;;;;;;;8.02;5.38;;;;;;;;;;5093572;28;20085;-43
2022/03/11 06:04:24;;;;;;;12.65;6.88;;;;;;;;;;5093134;28;20027;-40
2022/03/11 06:06:49;;;;;;;14.10;8.68;;;;;;;;;;5093652;28;20024;-41
2022/03/11 06:09:15;;;;;;;14.80;8.15;;;;;;;;;;5092064;28;20035;-41
2022/03/11 06:11:42;;;;;;;15.40;8.85;;;;;;;;;;5093514;28;20024;-40
2022/03/11 06:14:08;;;;;;;15.98;7.68;;;;;;;;;;5093113;28;20494;-39
2022/03/11 06:16:34;;;;;;;14.07;7.80;;;;;;;;;;5093317;28;20028;-40
2022/03/11 06:18:59;;;;;;;17.45;8.10;;;;;;;;;;5093353;28;20422;-40
2022/03/11 06:21:25;;;;;;;15.82;8.57;;;;;;;;;;5093036;28;20032;-39
2022/03/11 06:23:51;;;;;;;14.55;6.80;;;;;;;;;;5093050;28;20060;-40
2022/03/11 06:26:17;;;;;;;14.43;8.18;;;;;;;;;;5092734;28;20587;-42
2022/03/11 06:28:43;;;;;;;13.07;7.35;;;;;;;;;;5092858;28;20099;-41
2022/03/11 06:31:09;;;;;;;16.65;9.25;;;;;;;;;;5092808;28;20020;-43
2022/03/11 06:33:34;;;;;;;18.27;9.40;;;;;;;;;;5093086;28;20051;-39
2022/03/11 06:36:00;;;;;;;17.02;9.43;;;;;;;;;;5092756;28;20024;-40
2022/03/11 06:38:25;;;;;;;14.43;8.05;;;;;;;;;;5092501;28;20028;-41
2022/03/11 06:40:51;;;;;;;17.48;8.85;;;;;;;;;;5092881;28;20032;-41
2022/03/11 06:43:18;;;;;;;18.63;8.73;;;;;;;;;;5092634;28;20031;-40
2022/03/11 06:45:43;;;;;;;13.82;8.68;;;;;;;;;;5092623;28;20032;-39
2022/03/11 06:48:09;;;;;;;17.25;9.60;;;;;;;;;;5091654;28;20080;-40
2022/03/11 06:50:34;;;;;;;18.40;9.32;;;;;;;;;;5092966;28;20028;-40
2022/03/11 06:53:00;;;;;;;14.77;8.73;;;;;;;;;;5092690;28;20103;-40
2022/03/11 06:55:26;;;;;;;15.32;9.85;;;;;;;;;;5092510;28;20028;-41
2022/03/11 06:57:51;;;;;;;18.00;9.00;;;;;;;;;;5092415;28;20024;-43
2022/03/11 07:00:17;;;;;;;10.90;7.22;;;;;;;;;;5092436;28;20063;-42
2022/03/11 07:02:43;;;;;;;14.02;6.28;;;;;;;;;;5092374;28;20020;-41
2022/03/11 07:05:09;;;;;;;13.05;7.78;;;;;;;;;;5092349;28;20032;-41
2022/03/11 07:07:35;;;;;;;15.10;7.97;;;;;;;;;;5092354;28;20024;-39
2022/03/11 07:10:02;;;;;;;15.95;9.00;;;;;;;;;;5091032;28;20024;-43
2022/03/11 07:12:29;;;;;;;18.05;10.10;;;;;;;;;;5092607;28;20517;-39
2022/03/11 07:14:54;;;;;;;17.85;9.30;;;;;;;;;;5091032;28;20124;-41
2022/03/11 07:17:21;;;;;;;18.65;8.20;;;;;;;;;;5092183;28;20118;-40
2022/03/11 07:19:46;;;;;;;16.42;9.52;;;;;;;;;;5092236;28;20040;-40
2022/03/11 07:22:12;;;;;;;12.45;7.22;;;;;;;;;;5092451;28;20039;-43
2022/03/11 07:24:39;;;;;;;11.93;8.27;;;;;;;;;;5092082;28;20399;-41
2022/03/11 07:27:05;;;;;;;20.23;9.15;;;;;;;;;;5092542;28;20103;-41
2022/03/11 07:29:30;;;;;;;15.07;7.60;;;;;;;;;;5074077;28;20453;-40
2022/03/11 07:31:56;;;;;;;14.45;8.18;;;;;;;;;;5092533;28;20020;-43
2022/03/11 07:34:23;;;;;;;13.07;7.68;;;;;;;;;;5093152;28;20436;-39
2022/03/11 07:36:49;;;;;;;12.30;7.85;;;;;;;;;;5093074;28;20357;-42
2022/03/11 07:39:15;;;;;;;12.63;7.75;;;;;;;;;;5093025;28;20036;-45
2022/03/11 07:41:41;;;;;;;14.90;7.57;;;;;;;;;;5091317;28;20024;-42
2022/03/11 07:44:06;;;;;;;15.73;9.02;;;;;;;;;;5092876;28;20107;-43
2022/03/11 07:46:32;;;;;;;11.82;7.22;;;;;;;;;;5092942;28;20429;-42
2022/03/11 07:48:58;;;;;;;21.98;8.38;;;;;;;;;;5092716;28;20495;-40
2022/03/11 07:51:25;;;;;;;13.40;7.93;;;;;;;;;;5095281;28;20024;-43
2022/03/11 07:53:51;;;;;;;9.77;6.95;;;;;;;;;;5096206;28;20094;-43
2022/03/11 07:56:17;;;;;;;30.13;10.30;;;;;;;;;;5094945;28;20028;-47
2022/03/11 07:58:42;;;;;;;14.88;8.25;;;;;;;;;;5094480;28;20032;-45
2022/03/11 08:01:09;;;;;;;15.48;7.32;;;;;;;;;;5094395;28;20065;-46
2022/03/11 08:03:37;;;;;;;8.25;6.05;;;;;;;;;;5094551;28;20058;-43
2022/03/11 08:06:08;;;;;;;11.00;7.13;;;;;;;;;;5094550;28;20028;-44
2022/03/11 08:08:34;;;;;;;12.13;7.05;;;;;;;;;;5094994;28;20052;-45
2022/03/11 08:11:00;;;;;;;7.97;5.15;;;;;;;;;;5095611;28;20102;-42
2022/03/11 08:13:26;;;;;;;13.38;6.60;;;;;;;;;;5095716;28;20055;-44
2022/03/11 08:15:53;;;;;;;11.38;7.35;;;;;;;;;;5094959;28;20039;-46
2022/03/11 08:18:19;;;;;;;9.88;6.85;;;;;;;;;;5095694;28;20204;-44
2022/03/11 08:20:44;;;;;;;10.43;6.25;;;;;;;;;;5093908;28;20581;-47
2022/03/11 08:23:10;;;;;;;12.13;6.80;;;;;;;;;;5095131;28;20431;-48
2022/03/11 08:25:37;;;;;;;14.55;7.93;;;;;;;;;;5094443;28;20142;-45
2022/03/11 08:28:04;;;;;;;11.85;7.22;;;;;;;;;;5095066;28;20399;-44
2022/03/11 08:30:31;;;;;;;11.10;6.45;;;;;;;;;;5095444;28;20036;-45
2022/03/11 08:32:57;;;;;;;15.75;7.40;;;;;;;;;;5093921;28;20546;-45
2022/03/11 08:35:23;;;;;;;11.88;6.82;;;;;;;;;;5094182;28;20357;-42
2022/03/11 08:37:48;;;;;;;12.38;6.00;;;;;;;;;;5095523;28;20023;-45
2022/03/11 08:40:14;;;;;;;10.40;5.25;;;;;;;;;;5092980;28;20020;-43
2022/03/11 08:42:41;;;;;;;10.27;5.75;;;;;;;;;;5093803;28;20031;-43
2022/03/11 08:45:10;;;;;;;10.30;4.85;;;;;;;;;;5093294;28;20036;-47
2022/03/11 08:47:36;;;;;;;14.82;6.28;;;;;;;;;;5094601;28;20119;-42
2022/03/11 08:50:03;;;;;;;167.82;13.65;;;;;;;;;;5093348;28;20082;-47
2022/03/11 08:52:29;;;;;;;12.35;6.10;;;;;;;;;;5094504;28;20046;-44
2022/03/11 08:54:56;;;;;;;13.43;5.53;;;;;;;;;;5093332;28;20024;-43
2022/03/11 08:57:22;;;;;;;14.65;6.20;;;;;;;;;;5094544;28;20154;-45
2022/03/11 08:59:48;;;;;;;10.73;5.05;;;;;;;;;;5094744;28;20462;-43
2022/03/11 09:02:15;;;;;;;7.63;5.32;;;;;;;;;;5094028;28;20185;-42
2022/03/11 09:04:41;;;;;;;9.90;6.63;;;;;;;;;;5094298;28;20042;-44
2022/03/11 09:07:07;;;;;;;13.57;6.60;;;;;;;;;;5094297;28;20024;-42
2022/03/11 09:09:34;;;;;;;10.13;6.28;;;;;;;;;;5091282;28;20028;-42
2022/03/11 09:12:00;;;;;;;10.00;5.60;;;;;;;;;;5094261;28;20024;-42
2022/03/11 09:14:25;;;;;;;11.13;5.25;;;;;;;;;;5092716;28;20353;-42
2022/03/11 09:16:51;;;;;;;9.60;5.43;;;;;;;;;;5093956;28;20026;-42
2022/03/11 09:19:17;;;;;;;9.18;5.60;;;;;;;;;;5093451;28;20035;-43
2022/03/11 09:21:43;;;;;;;5.78;3.13;;;;;;;;;;5093193;28;20088;-42
2022/03/11 09:24:08;;;;;;;3.83;3.15;;;;;;;;;;5091693;28;20027;-42
2022/03/11 09:26:34;;;;;;;11.20;5.55;;;;;;;;;;5091546;28;20024;-41
2022/03/11 09:28:59;;;;;;;9.18;5.53;;;;;;;;;;5093704;28;20050;-41
2022/03/11 09:31:25;;;;;;;11.50;6.53;;;;;;;;;;5091735;28;20452;-41
2022/03/11 09:33:51;;;;;;;9.63;5.10;;;;;;;;;;5093609;28;20426;-42
2022/03/11 09:36:18;;;;;;;10.75;5.65;;;;;;;;;;5093815;28;20039;-42
2022/03/11 09:38:44;;;;;;;18.63;5.07;;;;;;;;;;5092827;28;20020;-42
2022/03/11 09:41:09;;;;;;;5.28;3.35;;;;;;;;;;5093428;28;20074;-43
2022/03/11 09:43:36;;;;;;;5.78;3.45;;;;;;;;;;5093099;28;20062;-41
2022/03/11 09:46:02;;;;;;;8.65;5.13;;;;;;;;;;5092045;28;20032;-45
2022/03/11 09:48:28;;;;;;;8.63;5.18;;;;;;;;;;5074255;28;20107;-43
2022/03/11 09:50:54;;;;;;;8.73;6.03;;;;;;;;;;5092389;28;20150;-42
2022/03/11 09:53:20;;;;;;;8.70;5.35;;;;;;;;;;5092317;28;20024;-42
2022/03/11 09:55:45;;;;;;;9.05;4.65;;;;;;;;;;5092604;28;20471;-45
2022/03/11 09:58:11;;;;;;;8.55;4.95;;;;;;;;;;5093293;28;20047;-42
2022/03/11 10:00:37;;;;;;;11.90;5.07;;;;;;;;;;5092074;28;20016;-42
2022/03/11 10:03:03;;;;;;;8.75;4.40;;;;;;;;;;5091981;28;20115;-42
2022/03/11 10:05:49;;;;;;;5.45;3.72;;;;;;;;;;5091712;28;20487;-42
2022/03/11 10:08:15;;;;;;;5.38;2.95;;;;;;;;;;5092556;28;20032;-43
2022/03/11 10:10:42;;;;;;;9.45;4.20;;;;;;;;;;5093294;28;20016;-42
2022/03/11 10:13:09;;;;;;;6.68;4.55;;;;;;;;;;5092054;28;20069;-45
2022/03/11 10:15:35;;;;;;;11.27;5.00;;;;;;;;;;5090597;28;20039;-44
2022/03/11 10:18:02;;;;;;;6.93;4.88;;;;;;;;;;5092480;28;20020;-44
2022/03/11 10:20:30;;;;;;;5.97;3.70;;;;;;;;;;5092762;28;20491;-44
2022/03/11 10:22:57;;;;;;;4.55;3.40;;;;;;;;;;5092655;28;20016;-45
2022/03/11 10:25:30;;;;;;;6.57;3.97;;;;;;;;;;5091303;28;20054;-48
2022/03/11 10:28:09;;;;;;;8.43;5.50;;;;;;;;;;5090117;28;20032;-44
2022/03/11 10:30:37;;;;;;;7.55;4.95;;;;;;;;;;5091049;28;20028;-45
2022/03/11 10:33:05;;;;;;;4.18;3.00;;;;;;;;;;5091232;28;20515;-45
2022/03/11 10:35:36;;;;;;;6.18;4.40;;;;;;;;;;5091409;28;20020;-47
2022/03/11 10:38:04;;;;;;;75.05;7.45;;;;;;;;;;5091189;28;20036;-45
2022/03/11 10:40:32;;;;;;;7.53;4.45;;;;;;;;;;5091163;28;20024;-46
2022/03/11 10:43:14;;;;;;;9.90;4.82;;;;;;;;;;5090768;28;20023;-47
2022/03/11 10:45:47;;;;;;;5.38;3.33;;;;;;;;;;5090847;28;20043;-44
2022/03/11 10:48:14;;;;;;;5.70;4.00;;;;;;;;;;5091221;28;20036;-46
2022/03/11 10:50:39;;;;;;;7.20;5.38;;;;;;;;;;5091198;28;20031;-44
2022/03/11 10:53:07;;;;;;;8.73;4.75;;;;;;;;;;5090906;28;20438;-45
2022/03/11 10:55:34;;;;;;;9.43;5.10;;;;;;;;;;5091216;28;20422;-45
2022/03/11 10:58:02;;;;;;;14.85;5.30;;;;;;;;;;5091511;28;20022;-45
2022/03/11 11:00:29;;;;;;;8.50;5.97;;;;;;;;;;5090178;28;20081;-45
2022/03/11 11:02:59;;;;;;;6.22;3.78;;;;;;;;;;5091660;28;20035;-46
2022/03/11 11:05:27;;;;;;;3.53;2.70;;;;;;;;;;5091440;28;20458;-44
2022/03/11 11:07:53;;;;;;;4.80;3.17;;;;;;;;;;5091348;28;20434;-44
2022/03/11 11:10:21;;;;;;;5.18;3.60;;;;;;;;;;5091321;28;20039;-44
2022/03/11 11:12:47;;;;;;;5.32;3.13;;;;;;;;;;5091406;28;20027;-44
2022/03/11 11:15:17;;;;;;;4.13;2.72;;;;;;;;;;5091028;28;20035;-47
2022/03/11 11:17:44;;;;;;;4.53;3.30;;;;;;;;;;5091224;28;20105;-46
2022/03/11 11:20:19;;;;;;;4.57;3.67;;;;;;;;;;5091162;28;20036;-44
2022/03/11 11:22:47;;;;;;;6.13;4.38;;;;;;;;;;5091226;28;20028;-45
2022/03/11 11:25:15;;;;;;;5.18;3.42;;;;;;;;;;5093503;28;20048;-47
2022/03/11 11:27:41;;;;;;;11.18;4.85;;;;;;;;;;5094951;28;20407;-44
2022/03/11 11:30:08;;;;;;;8.50;5.25;;;;;;;;;;5095180;28;20422;-44
2022/03/11 11:32:38;;;;;;;5.30;3.20;;;;;;;;;;5095242;28;20024;-45
2022/03/11 11:35:30;;;;;;;7.97;4.47;;;;;;;;;;5094994;28;20032;-46
2022/03/11 11:37:58;;;;;;;4.55;3.22;;;;;;;;;;5094916;28;20110;-45
2022/03/11 11:40:37;;;;;;;6.57;4.32;;;;;;;;;;5094846;28;20064;-46
2022/03/11 11:43:16;;;;;;;11.23;4.63;;;;;;;;;;5094937;28;20099;-47
2022/03/11 11:46:05;;;;;;;6.38;2.88;;;;;;;;;;5093772;28;20028;-44
2022/03/11 11:48:52;;;;;;;8.40;3.55;;;;;;;;;;5094985;28;20447;-44
2022/03/11 11:51:43;;;;;;;4.82;3.38;;;;;;;;;;5094600;28;20450;-44
2022/03/11 11:54:10;;;;;;;5.15;3.45;;;;;;;;;;5093298;28;20420;-47
2022/03/11 11:56:44;;;;;;;6.50;4.22;;;;;;;;;;5094403;28;20047;-49
2022/03/11 11:59:27;;;;;;;9.75;4.32;;;;;;;;;;5094449;28;20031;-47
2022/03/11 12:01:56;;;;;;;7.45;3.65;;;;;;;;;;5092951;28;20024;-45
2022/03/11 12:04:34;;;;;;;6.80;3.97;;;;;;;;;;5094625;28;20395;-44
2022/03/11 12:07:02;;;;;;;8.00;4.75;;;;;;;;;;5094313;28;20383;-44
2022/03/11 12:12:30;;;;;;;8.43;5.88;;;;;;;;;;5094319;28;20036;-44
2022/03/11 12:15:04;;;;;;;3.00;2.28;;;;;;;;;;5093624;28;20032;-47
2022/03/11 12:17:45;;;;;;;7.63;4.88;;;;;;;;;;5093761;28;20040;-46
2022/03/11 12:20:32;;;;;;;8.43;5.10;;;;;;;;;;5072079;28;20033;-44
2022/03/11 12:23:07;;;;;;;6.18;3.72;;;;;;;;;;5073097;28;20035;-44
2022/03/11 12:25:48;;;;;;;7.72;4.70;;;;;;;;;;5072782;28;20082;-45
2022/03/11 12:28:16;;;;;;;10.63;4.90;;;;;;;;;;5073298;28;20028;-45
2022/03/11 12:30:48;;;;;;;6.43;4.07;;;;;;;;;;5073136;28;20058;-45
2022/03/11 12:33:16;;;;;;;7.53;4.47;;;;;;;;;;5073385;28;20116;-45
2022/03/11 12:35:43;;;;;;;6.40;3.63;;;;;;;;;;5072475;28;20032;-45
2022/03/11 12:38:16;;;;;;;3.38;2.90;;;;;;;;;;5073120;28;20028;-46
2022/03/11 12:40:42;;;;;;;4.78;3.33;;;;;;;;;;5077050;28;20027;-43
2022/03/11 12:43:11;;;;;;;5.00;3.85;;;;;;;;;;5093135;28;20123;-47
2022/03/11 12:45:45;;;;;;;8.60;4.70;;;;;;;;;;5092732;28;20107;-46
2022/03/11 12:48:16;;;;;;;6.55;4.32;;;;;;;;;;5093126;28;20024;-46
2022/03/11 12:50:42;;;;;;;9.52;3.55;;;;;;;;;;5092924;28;20054;-46
2022/03/11 12:53:10;;;;;;;7.28;3.95;;;;;;;;;;5092304;28;20039;-45
2022/03/11 12:55:38;;;;;;;9.57;5.15;;;;;;;;;;5092669;28;20032;-46
2022/03/11 12:58:07;;;;;;;8.60;4.40;;;;;;;;;;5092585;28;20020;-47
2022/03/11 13:00:36;;;;;;;6.93;3.33;;;;;;;;;;5092729;28;20038;-45
2022/03/11 13:03:06;;;;;;;9.45;3.60;;;;;;;;;;5091350;28;20036;-43
2022/03/11 13:05:32;;;;;;;7.28;3.45;;;;;;;;;;5092459;28;20066;-43
2022/03/11 13:08:18;;;;;;;11.98;5.05;;;;;;;;;;5092640;28;20428;-44
2022/03/11 13:10:51;;;;;;;8.95;5.55;;;;;;;;;;5092802;28;20028;-43
2022/03/11 13:13:17;;;;;;;6.57;3.40;;;;;;;;;;5092661;28;20069;-44
2022/03/11 13:15:49;;;;;;;7.68;3.60;;;;;;;;;;5091308;28;20028;-44
2022/03/11 13:18:26;;;;;;;6.40;3.50;;;;;;;;;;5092786;28;20031;-44
2022/03/11 13:21:06;;;;;;;4.45;2.63;;;;;;;;;;5092426;28;20384;-45
2022/03/11 13:23:37;;;;;;;7.32;3.65;;;;;;;;;;5092773;28;20513;-44
2022/03/11 13:26:07;;;;;;;4.40;2.92;;;;;;;;;;5091891;28;20048;-46
2022/03/11 13:28:41;;;;;;;15.18;4.70;;;;;;;;;;5092101;28;20038;-44
2022/03/11 13:31:16;;;;;;;10.90;4.80;;;;;;;;;;5090995;28;20491;-46
2022/03/11 13:33:47;;;;;;;4.35;3.00;;;;;;;;;;5092612;28;20056;-44
2022/03/11 13:36:27;;;;;;;7.32;3.50;;;;;;;;;;5092502;28;20376;-43
2022/03/11 13:39:20;;;;;;;5.50;3.15;;;;;;;;;;5092281;28;20032;-43
2022/03/11 13:41:55;;;;;;;8.18;3.00;;;;;;;;;;5091196;28;20035;-44
2022/03/11 13:44:38;;;;;;;19.05;4.28;;;;;;;;;;5092263;28;20020;-43
2022/03/11 13:47:06;;;;;;;5.32;3.58;;;;;;;;;;5091682;28;20067;-44
2022/03/11 13:49:41;;;;;;;3.78;2.60;;;;;;;;;;5091576;28;20024;-47
2022/03/11 13:52:09;;;;;;;4.10;2.25;;;;;;;;;;5091954;28;20043;-45
2022/03/11 13:54:41;;;;;;;1.45;1.35;;;;;;;;;;5092187;28;20032;-44
2022/03/11 13:57:19;;;;;;;4.03;2.47;;;;;;;;;;5091795;28;20047;-47
2022/03/11 13:59:50;;;;;;;5.00;3.40;;;;;;;;;;5091884;28;20494;-44
2022/03/11 14:02:22;;;;;;;6.03;3.10;;;;;;;;;;5091387;28;20028;-46
2022/03/11 14:05:06;;;;;;;8.13;3.28;;;;;;;;;;5091554;28;20033;-42
2022/03/11 14:07:31;;;;;;;8.10;3.85;;;;;;;;;;5090812;28;20024;-44
2022/03/11 14:09:57;;;;;;;5.18;2.10;;;;;;;;;;5091485;28;20047;-44
2022/03/11 14:12:28;;;;;;;12.43;3.95;;;;;;;;;;5091658;28;20077;-43
2022/03/11 14:15:08;;;;;;;4.53;2.78;;;;;;;;;;5090564;28;20031;-43
2022/03/11 14:17:34;;;;;;;5.25;2.17;;;;;;;;;;5088206;28;20024;-43
2022/03/11 14:20:03;;;;;;;8.95;3.80;;;;;;;;;;5090896;28;20028;-44
2022/03/11 14:22:29;;;;;;;6.53;3.22;;;;;;;;;;5089679;28;20078;-44
2022/03/11 14:24:54;;;;;;;3.20;2.15;;;;;;;;;;5091298;28;20079;-43
2022/03/11 14:27:22;;;;;;;3.17;2.10;;;;;;;;;;5092097;28;20043;-43
2022/03/11 14:29:48;;;;;;;3.80;2.63;;;;;;;;;;5092146;28;20024;-44
2022/03/11 14:32:15;;;;;;;6.53;3.75;;;;;;;;;;5091089;28;20024;-49
2022/03/11 14:34:40;;;;;;;2.47;1.90;;;;;;;;;;5090870;28;20381;-45
2022/03/11 14:37:07;;;;;;;5.22;2.40;;;;;;;;;;5091852;28;20394;-45
2022/03/11 14:39:34;;;;;;;6.93;2.75;;;;;;;;;;5090295;28;20032;-46
2022/03/11 14:42:00;;;;;;;4.20;2.83;;;;;;;;;;5090720;28;20380;-47
2022/03/11 14:44:25;;;;;;;9.00;2.58;;;;;;;;;;5092200;28;20039;-45